createdAt,value
2022-11-25T00:01:12.543Z,100421.34
2022-11-25T00:03:39.942Z,100395.28
2022-11-25T00:06:18.034Z,100403.63
2022-11-25T00:08:46.506Z,100401.00
2022-11-25T00:11:14.588Z,100328.09
2022-11-25T00:13:41.936Z,100369.28
2022-11-25T00:16:13.410Z,100384.44
2022-11-25T00:18:40.045Z,100321.72
2022-11-25T00:21:08.738Z,100371.50
2022-11-25T00:23:36.599Z,100373.91
2022-11-25T00:26:14.816Z,100373.13
2022-11-25T00:28:46.220Z,100363.53
2022-11-25T00:31:39.779Z,100361.75
2022-11-25T00:34:07.219Z,100341.16
2022-11-25T00:36:35.927Z,100299.94
2022-11-25T00:39:05.417Z,100365.38
2022-11-25T00:41:50.463Z,100330.97
2022-11-25T00:44:38.115Z,100356.72
2022-11-25T00:47:14.189Z,100352.50
2022-11-25T00:49:42.862Z,100332.72
2022-11-25T00:52:12.405Z,100351.50
2022-11-25T00:54:38.861Z,100322.25
2022-11-25T00:57:05.407Z,100310.19
2022-11-25T00:59:31.766Z,100252.13
2022-11-25T01:01:58.273Z,100314.69
2022-11-25T01:04:24.872Z,100346.44
2022-11-25T01:06:51.255Z,100313.63
2022-11-25T01:09:17.634Z,100329.94
2022-11-25T01:11:44.346Z,100348.81
2022-11-25T01:14:11.331Z,100306.69
2022-11-25T01:16:37.958Z,100328.41
2022-11-25T01:19:05.585Z,100353.06
2022-11-25T01:21:34.253Z,100342.00
2022-11-25T01:24:02.932Z,100359.06
2022-11-25T01:26:30.293Z,100302.19
2022-11-25T01:28:59.507Z,100354.50
2022-11-25T01:31:27.980Z,100356.44
2022-11-25T01:34:04.395Z,100302.13
2022-11-25T01:36:31.094Z,100307.25
2022-11-25T01:38:59.505Z,100290.88
2022-11-25T01:41:28.611Z,100343.91
2022-11-25T01:44:05.522Z,100307.75
2022-11-25T01:47:30.793Z,100330.91
2022-11-25T01:50:03.695Z,100314.53
2022-11-25T01:52:36.742Z,100333.59
2022-11-25T01:55:11.061Z,100344.81
2022-11-25T01:57:45.968Z,100349.97
2022-11-25T02:00:13.226Z,100314.84
2022-11-25T02:02:39.870Z,100314.88
2022-11-25T02:05:15.650Z,100315.44
2022-11-25T02:07:45.161Z,100323.13
2022-11-25T02:10:15.580Z,100345.53
2022-11-25T02:12:44.965Z,100347.56
2022-11-25T02:15:13.716Z,100334.69
2022-11-25T02:17:40.643Z,100338.91
2022-11-25T02:20:10.871Z,100345.13
2022-11-25T02:22:56.928Z,100359.59
2022-11-25T02:25:31.079Z,100368.06
2022-11-25T02:28:05.948Z,100317.03
2022-11-25T02:30:33.770Z,100375.06
2022-11-25T02:33:00.938Z,100363.16
2022-11-25T02:35:29.288Z,100374.31
2022-11-25T02:38:00.329Z,100338.16
2022-11-25T02:40:28.608Z,100344.13
2022-11-25T02:42:58.722Z,100355.34
2022-11-25T02:45:35.476Z,100332.03
2022-11-25T02:48:01.845Z,100365.50
2022-11-25T02:50:28.196Z,100378.38
2022-11-25T02:52:54.519Z,100369.91
2022-11-25T02:55:20.982Z,100349.13
2022-11-25T02:57:47.288Z,100336.94
2022-11-25T03:00:14.206Z,100357.63
2022-11-25T03:02:40.668Z,100370.66
2022-11-25T03:05:07.262Z,100267.44
2022-11-25T03:07:33.598Z,100345.69
2022-11-25T03:10:00.036Z,100363.75
2022-11-25T03:12:26.435Z,100363.72
2022-11-25T03:14:52.814Z,100324.94
2022-11-25T03:17:19.332Z,100335.25
2022-11-25T03:19:45.759Z,100372.25
2022-11-25T03:22:12.188Z,100353.47
2022-11-25T03:24:38.689Z,100378.47
2022-11-25T03:27:05.245Z,100379.34
2022-11-25T03:29:31.783Z,100412.91
2022-11-25T03:31:58.174Z,100327.16
2022-11-25T03:34:24.536Z,100402.66
2022-11-25T03:36:50.948Z,100382.91
2022-11-25T03:39:17.319Z,100400.94
2022-11-25T03:41:43.686Z,100402.66
2022-11-25T03:44:10.008Z,100361.38
2022-11-25T03:46:36.345Z,100382.78
2022-11-25T03:49:02.966Z,100392.13
2022-11-25T03:51:29.472Z,100432.38
2022-11-25T03:53:55.851Z,100376.53
2022-11-25T03:56:22.189Z,100417.50
2022-11-25T03:58:48.638Z,100398.72
2022-11-25T04:01:15.033Z,100438.47
2022-11-25T04:03:41.511Z,100415.47
2022-11-25T04:06:07.895Z,100422.19
2022-11-25T04:08:34.209Z,100381.44
2022-11-25T04:11:00.695Z,100398.72
2022-11-25T04:13:27.054Z,100412.16
2022-11-25T04:15:53.471Z,100436.66
2022-11-25T04:18:20.385Z,100416.84
2022-11-25T04:20:47.017Z,100402.75
2022-11-25T04:23:14.461Z,100394.69
2022-11-25T04:25:40.934Z,100425.16
2022-11-25T04:28:07.249Z,100391.94
2022-11-25T04:30:34.123Z,100418.56
2022-11-25T04:33:01.837Z,100459.78
2022-11-25T04:35:28.202Z,100435.91
2022-11-25T04:37:54.561Z,100412.66
2022-11-25T04:40:20.921Z,100438.81
2022-11-25T04:42:47.479Z,100473.44
2022-11-25T04:45:24.044Z,100466.56
2022-11-25T04:47:51.466Z,100453.28
2022-11-25T04:50:21.056Z,100462.44
2022-11-25T04:52:47.380Z,100409.00
2022-11-25T04:55:13.798Z,100422.69
2022-11-25T04:57:40.299Z,100441.47
2022-11-25T05:00:07.925Z,100416.41
2022-11-25T05:02:34.353Z,100432.94
2022-11-25T05:05:01.374Z,100481.00
2022-11-25T05:07:28.923Z,100473.34
2022-11-25T05:09:56.216Z,100491.66
2022-11-25T05:12:25.932Z,100465.88
2022-11-25T05:14:52.747Z,100473.66
2022-11-25T05:17:22.381Z,100467.53
2022-11-25T05:19:49.698Z,100455.44
2022-11-25T05:22:18.238Z,100457.09
2022-11-25T05:24:44.705Z,100460.41
2022-11-25T05:27:11.685Z,100464.75
2022-11-25T05:29:38.181Z,100474.19
2022-11-25T05:32:05.209Z,100484.44
2022-11-25T05:34:31.806Z,100434.59
2022-11-25T05:36:58.607Z,100414.78
2022-11-25T05:39:25.431Z,100477.63
2022-11-25T05:41:51.908Z,100481.06
2022-11-25T05:44:22.723Z,100497.63
2022-11-25T05:46:50.235Z,100513.97
2022-11-25T05:49:17.604Z,100500.97
2022-11-25T05:51:44.244Z,100505.28
2022-11-25T05:54:10.881Z,100509.66
2022-11-25T05:56:37.333Z,100458.13
2022-11-25T05:59:04.796Z,100436.66
2022-11-25T06:01:31.790Z,100502.13
2022-11-25T06:04:04.873Z,100517.72
2022-11-25T06:06:32.118Z,100533.25
2022-11-25T06:08:58.786Z,100516.09
2022-11-25T06:11:28.082Z,100500.72
2022-11-25T06:13:57.396Z,100488.84
2022-11-25T06:16:24.760Z,100520.56
2022-11-25T06:18:51.455Z,100463.03
2022-11-25T06:21:18.014Z,100531.00
2022-11-25T06:23:47.090Z,100530.19
2022-11-25T06:26:19.513Z,100554.44
2022-11-25T06:28:46.433Z,100509.00
2022-11-25T06:31:18.597Z,100553.84
2022-11-25T06:33:49.832Z,100538.47
2022-11-25T06:36:17.508Z,100535.97
2022-11-25T06:38:45.195Z,100467.19
2022-11-25T06:41:11.588Z,100565.31
2022-11-25T06:43:38.077Z,100541.19
2022-11-25T06:46:12.805Z,100556.09
2022-11-25T06:48:40.308Z,100573.28
2022-11-25T06:51:16.369Z,100566.28
2022-11-25T06:53:42.728Z,100546.63
2022-11-25T06:56:15.942Z,100560.38
2022-11-25T06:58:43.976Z,100551.91
2022-11-25T07:01:19.081Z,100554.72
2022-11-25T07:03:47.105Z,100498.72
2022-11-25T07:06:15.578Z,100551.28
2022-11-25T07:08:42.533Z,100557.41
2022-11-25T07:11:17.102Z,100567.72
2022-11-25T07:13:43.838Z,100553.97
2022-11-25T07:16:11.826Z,100602.44
2022-11-25T07:18:39.528Z,100597.47
2022-11-25T07:21:11.412Z,100613.09
2022-11-25T07:23:38.522Z,100615.59
2022-11-25T07:26:21.529Z,100557.97
2022-11-25T07:28:49.387Z,100570.03
2022-11-25T07:31:28.688Z,100627.91
2022-11-25T07:34:00.749Z,100629.75
2022-11-25T07:36:28.275Z,100635.78
2022-11-25T07:38:54.879Z,100618.47
2022-11-25T07:41:23.952Z,100614.41
2022-11-25T07:43:52.708Z,100653.22
2022-11-25T07:46:26.302Z,100654.06
2022-11-25T07:48:54.260Z,100666.34
2022-11-25T07:51:27.152Z,100662.81
2022-11-25T07:53:55.224Z,100631.09
2022-11-25T07:56:21.759Z,100671.38
2022-11-25T07:58:48.274Z,100656.97
2022-11-25T08:01:17.033Z,100677.53
2022-11-25T08:03:44.527Z,100611.94
2022-11-25T08:06:16.629Z,100684.25
2022-11-25T08:08:44.055Z,100669.97
2022-11-25T08:11:14.340Z,100646.38
2022-11-25T08:13:41.110Z,100619.50
2022-11-25T08:16:08.634Z,100698.03
2022-11-25T08:18:35.106Z,100692.69
2022-11-25T08:21:06.914Z,100668.63
2022-11-25T08:23:34.397Z,100709.94
2022-11-25T08:26:13.239Z,100711.41
2022-11-25T08:28:41.363Z,100711.53
2022-11-25T08:31:10.917Z,100713.19
2022-11-25T08:33:37.718Z,100711.41
2022-11-25T08:36:04.944Z,100677.13
2022-11-25T08:38:31.655Z,100697.56
2022-11-25T08:40:58.377Z,100709.69
2022-11-25T08:43:29.419Z,100731.88
2022-11-25T08:45:56.378Z,100690.53
2022-11-25T08:48:22.788Z,100720.59
2022-11-25T08:50:52.643Z,100736.97
2022-11-25T08:53:21.115Z,100731.66
2022-11-25T08:55:48.265Z,100742.34
2022-11-25T08:58:14.626Z,100701.72
2022-11-25T09:00:43.076Z,100741.44
2022-11-25T09:03:10.500Z,100724.03
2022-11-25T09:05:45.360Z,100728.78
2022-11-25T09:08:12.438Z,100752.09
2022-11-25T09:10:39.689Z,100726.22
2022-11-25T09:13:06.463Z,100750.06
2022-11-25T09:15:34.699Z,100769.25
2022-11-25T09:18:03.752Z,100769.44
2022-11-25T09:20:31.137Z,100718.84
2022-11-25T09:23:00.120Z,100759.97
2022-11-25T09:25:27.675Z,100784.22
2022-11-25T09:27:55.546Z,100783.41
2022-11-25T09:30:22.897Z,100791.84
2022-11-25T09:32:51.691Z,100765.16
2022-11-25T09:35:19.061Z,100713.97
2022-11-25T09:37:45.663Z,100774.44
2022-11-25T09:40:50.912Z,100806.00
2022-11-25T09:43:46.189Z,100805.50
2022-11-25T09:46:42.509Z,100799.84
2022-11-25T09:49:40.562Z,100796.47
2022-11-25T09:52:28.259Z,100812.59
2022-11-25T09:55:11.421Z,100802.88
2022-11-25T09:58:01.911Z,100809.19
2022-11-25T10:00:38.562Z,100822.53
2022-11-25T10:03:23.532Z,100826.56
2022-11-25T10:06:08.188Z,100814.78
2022-11-25T10:08:39.298Z,100837.06
2022-11-25T10:11:48.047Z,100837.50
2022-11-25T10:14:41.907Z,100840.59
2022-11-25T10:17:28.840Z,100842.66
2022-11-25T10:20:07.182Z,100846.25
2022-11-25T10:22:36.375Z,100850.31
2022-11-25T10:25:15.612Z,100840.22
2022-11-25T10:27:44.645Z,100852.31
2022-11-25T10:30:23.794Z,100819.22
2022-11-25T10:33:00.762Z,100830.63
2022-11-25T10:35:34.820Z,100841.13
2022-11-25T10:38:05.440Z,100837.78
2022-11-25T10:40:31.956Z,100834.50
2022-11-25T10:43:01.000Z,100844.56
2022-11-25T10:45:40.560Z,100807.63
2022-11-25T10:48:18.340Z,100841.53
2022-11-25T10:51:20.352Z,100869.56
2022-11-25T10:54:14.699Z,100876.97
2022-11-25T10:56:49.441Z,100837.31
2022-11-25T10:59:31.269Z,100877.59
2022-11-25T11:02:26.944Z,100899.94
2022-11-25T11:04:57.728Z,100899.78
2022-11-25T11:07:29.570Z,100900.31
2022-11-25T11:10:15.513Z,100867.41
2022-11-25T11:13:19.869Z,100909.88
2022-11-25T11:15:54.889Z,100860.03
2022-11-25T11:18:29.303Z,100899.88
2022-11-25T11:20:57.340Z,100907.28
2022-11-25T11:23:25.081Z,100907.84
2022-11-25T11:26:28.696Z,100913.00
2022-11-25T11:29:01.214Z,100864.00
2022-11-25T11:31:33.271Z,100915.25
2022-11-25T11:34:05.651Z,100914.63
2022-11-25T11:37:12.319Z,100906.53
2022-11-25T11:40:00.144Z,100923.97
2022-11-25T11:42:41.438Z,100913.47
2022-11-25T11:45:42.338Z,100924.75
2022-11-25T11:48:39.298Z,100907.09
2022-11-25T11:51:27.503Z,100944.28
2022-11-25T11:54:18.050Z,100941.66
2022-11-25T11:56:52.058Z,100940.78
2022-11-25T11:59:46.914Z,100923.84
2022-11-25T12:02:52.521Z,100944.41
2022-11-25T12:05:22.045Z,100928.16
2022-11-25T12:08:28.341Z,100921.91
2022-11-25T12:10:58.137Z,100949.63
2022-11-25T12:13:56.513Z,100950.34
2022-11-25T12:16:32.333Z,100943.38
2022-11-25T12:19:39.560Z,100934.59
2022-11-25T12:22:32.270Z,100961.53
2022-11-25T12:25:08.724Z,100968.75
2022-11-25T12:28:10.361Z,100970.56
2022-11-25T12:31:06.271Z,100975.03
2022-11-25T12:33:44.125Z,100922.75
2022-11-25T12:36:17.743Z,100923.84
2022-11-25T12:38:53.423Z,100946.38
2022-11-25T12:41:19.664Z,100971.94
2022-11-25T12:43:48.959Z,100977.41
2022-11-25T12:46:28.507Z,100957.84
2022-11-25T12:48:58.194Z,100948.81
2022-11-25T12:51:51.079Z,100937.28
2022-11-25T12:54:54.675Z,100988.19
2022-11-25T12:57:30.305Z,100994.94
2022-11-25T13:00:46.556Z,100991.22
2022-11-25T13:03:45.861Z,101000.47
2022-11-25T13:06:22.664Z,101001.72
2022-11-25T13:08:55.742Z,101001.66
2022-11-25T13:11:31.664Z,101002.56
2022-11-25T13:14:14.337Z,100991.56
2022-11-25T13:16:45.412Z,100908.50
2022-11-25T13:19:16.626Z,100904.78
2022-11-25T13:22:18.218Z,101012.91
2022-11-25T13:24:47.654Z,100998.75
2022-11-25T13:27:35.907Z,101036.00
2022-11-25T13:30:03.198Z,101016.91
2022-11-25T13:32:35.221Z,101039.16
2022-11-25T13:35:26.287Z,101049.53
2022-11-25T13:37:53.410Z,101030.13
2022-11-25T13:40:22.872Z,101052.78
2022-11-25T13:42:53.314Z,101005.03
2022-11-25T13:45:43.320Z,101021.47
2022-11-25T13:48:21.237Z,101044.56
2022-11-25T13:51:10.610Z,101065.50
2022-11-25T13:53:39.827Z,100912.22
2022-11-25T13:56:25.316Z,100981.69
2022-11-25T13:59:12.222Z,101077.66
2022-11-25T14:01:52.421Z,101064.81
2022-11-25T14:04:43.026Z,101058.31
2022-11-25T14:07:26.711Z,101045.66
2022-11-25T14:10:54.829Z,101079.41
2022-11-25T14:13:50.991Z,101006.97
2022-11-25T14:16:35.625Z,101058.19
2022-11-25T14:19:51.144Z,101084.94
2022-11-25T14:22:30.900Z,101091.03
2022-11-25T14:25:25.590Z,101095.25
2022-11-25T14:28:03.923Z,101091.63
2022-11-25T14:30:32.608Z,101093.38
2022-11-25T14:33:03.652Z,101090.34
2022-11-25T14:35:35.493Z,101071.06
2022-11-25T14:38:13.515Z,101074.00
2022-11-25T14:41:00.327Z,101112.59
2022-11-25T14:43:28.856Z,101111.22
2022-11-25T14:46:15.534Z,101105.81
2022-11-25T14:48:43.722Z,101113.00
2022-11-25T14:51:18.438Z,101117.88
2022-11-25T14:53:50.449Z,101134.19
2022-11-25T14:56:55.426Z,101126.38
2022-11-25T14:59:22.080Z,101066.75
2022-11-25T15:01:54.961Z,101056.56
2022-11-25T15:04:24.325Z,101134.38
2022-11-25T15:06:53.973Z,101046.53
2022-11-25T15:09:29.324Z,101026.13
2022-11-25T15:12:00.669Z,101060.66
2022-11-25T15:14:27.028Z,101129.03
2022-11-25T15:16:54.220Z,101167.16
2022-11-25T15:19:25.297Z,101004.16
2022-11-25T15:24:53.291Z,101193.53
2022-11-25T15:27:28.671Z,101199.50
2022-11-25T15:29:56.993Z,101201.34
2022-11-25T15:32:29.799Z,101090.72
2022-11-25T15:34:59.021Z,101204.03
2022-11-25T15:37:25.985Z,101117.00
2022-11-25T15:40:31.409Z,101220.56
2022-11-25T15:43:04.339Z,101201.66
2022-11-25T15:45:53.990Z,101132.44
2022-11-25T15:48:38.403Z,101127.47
2022-11-25T15:51:23.142Z,101234.94
2022-11-25T15:53:56.386Z,101179.66
2022-11-25T15:56:26.910Z,101109.50
2022-11-25T15:58:58.636Z,101239.34
2022-11-25T16:01:31.750Z,101245.25
2022-11-25T16:04:19.833Z,101195.34
2022-11-25T16:07:06.435Z,101193.59
2022-11-25T16:10:02.154Z,101220.47
2022-11-25T16:12:28.514Z,101081.59
2022-11-25T16:14:54.856Z,101255.47
2022-11-25T16:20:28.508Z,101045.63
2022-11-25T16:22:56.127Z,101078.69
2022-11-25T16:25:22.845Z,101186.22
2022-11-25T16:27:49.386Z,101172.38
2022-11-25T16:30:20.163Z,101267.78
2022-11-25T16:32:46.576Z,101184.63
2022-11-25T16:35:15.595Z,101182.78
2022-11-25T16:37:47.199Z,101285.28
2022-11-25T16:40:17.078Z,101288.81
2022-11-25T16:42:49.142Z,101297.50
2022-11-25T16:45:27.369Z,101294.00
2022-11-25T16:47:54.436Z,101189.19
2022-11-25T16:50:22.033Z,101283.66
2022-11-25T16:52:49.697Z,101318.47
2022-11-25T16:55:18.364Z,101286.72
2022-11-25T16:57:46.933Z,101264.28
2022-11-25T17:00:17.660Z,101330.16
2022-11-25T17:02:44.844Z,101298.00
2022-11-25T17:05:25.261Z,101331.81
2022-11-25T17:07:53.581Z,101338.03
2022-11-25T17:10:20.648Z,101351.28
2022-11-25T17:12:47.648Z,101281.09
2022-11-25T17:15:24.302Z,101370.47
2022-11-25T17:17:51.094Z,101206.00
2022-11-25T17:20:21.763Z,101377.34
2022-11-25T17:22:49.076Z,101378.06
2022-11-25T17:25:15.602Z,101342.66
2022-11-25T17:27:42.810Z,101240.56
2022-11-25T17:30:22.348Z,101360.84
2022-11-25T17:33:02.757Z,101241.31
2022-11-25T17:35:29.394Z,101255.31
2022-11-25T17:37:57.954Z,101392.06
2022-11-25T17:40:24.527Z,101283.91
2022-11-25T17:42:52.564Z,101421.88
2022-11-25T17:45:21.358Z,101420.00
2022-11-25T17:47:48.170Z,101442.66
2022-11-25T17:50:23.589Z,101424.44
2022-11-25T17:52:51.544Z,101428.88
2022-11-25T17:55:19.833Z,101446.38
2022-11-25T17:57:48.303Z,101453.22
2022-11-25T18:00:17.844Z,101455.06
2022-11-25T18:02:44.279Z,101396.16
2022-11-25T18:05:14.731Z,101463.94
2022-11-25T18:07:43.770Z,101380.63
2022-11-25T18:10:14.421Z,101460.44
2022-11-25T18:12:42.709Z,101249.00
2022-11-25T18:15:19.435Z,101496.25
2022-11-25T18:17:47.003Z,101460.69
2022-11-25T18:20:21.080Z,101482.31
2022-11-25T18:22:47.814Z,101482.31
2022-11-25T18:25:38.984Z,101489.25
2022-11-25T18:28:05.602Z,101458.06
2022-11-25T18:30:34.038Z,101473.63
2022-11-25T18:33:01.552Z,101464.19
2022-11-25T18:35:35.665Z,101510.19
2022-11-25T18:38:02.722Z,101476.38
2022-11-25T18:40:29.740Z,101382.72
2022-11-25T18:43:00.480Z,101455.56
2022-11-25T18:45:38.494Z,101525.09
2022-11-25T18:48:17.315Z,101507.91
2022-11-25T18:50:45.037Z,101504.38
2022-11-25T18:53:11.796Z,101529.44
2022-11-25T18:55:38.317Z,101430.53
2022-11-25T18:58:15.283Z,101524.41
2022-11-25T19:00:41.955Z,101416.72
2022-11-25T19:03:17.406Z,101414.31
2022-11-25T19:05:43.937Z,101530.56
2022-11-25T19:08:10.413Z,101536.75
2022-11-25T19:10:38.832Z,101443.13
2022-11-25T19:13:08.739Z,101401.34
2022-11-25T19:15:37.381Z,101570.78
2022-11-25T19:18:06.348Z,101417.94
2022-11-25T19:20:33.122Z,101489.19
2022-11-25T19:23:11.639Z,101582.94
2022-11-25T19:25:37.946Z,101491.00
2022-11-25T19:28:04.493Z,101574.44
2022-11-25T19:30:32.254Z,101561.31
2022-11-25T19:33:01.164Z,101605.59
2022-11-25T19:35:33.249Z,101595.09
2022-11-25T19:37:59.613Z,101584.78
2022-11-25T19:40:26.290Z,101598.72
2022-11-25T19:42:52.673Z,101493.63
2022-11-25T19:45:20.982Z,101614.41
2022-11-25T19:47:50.449Z,101452.88
2022-11-25T19:50:23.505Z,101607.50
2022-11-25T19:52:50.758Z,101618.84
2022-11-25T19:55:18.963Z,101433.88
2022-11-25T19:57:45.760Z,101393.88
2022-11-25T20:00:14.422Z,101633.69
2022-11-25T20:02:42.332Z,101545.06
2022-11-25T20:05:09.543Z,101639.81
2022-11-25T20:07:36.443Z,101472.09
2022-11-25T20:10:19.503Z,101588.59
2022-11-25T20:12:45.927Z,101558.22
2022-11-25T20:15:13.020Z,101635.63
2022-11-25T20:17:43.075Z,101661.69
2022-11-25T20:20:22.462Z,101614.81
2022-11-25T20:23:08.952Z,101595.75
2022-11-25T20:25:43.410Z,101613.09
2022-11-25T20:28:22.856Z,101556.53
2022-11-25T20:30:50.639Z,101675.75
2022-11-25T20:33:24.079Z,101569.59
2022-11-25T20:35:58.451Z,101683.59
2022-11-25T20:38:27.581Z,101667.09
2022-11-25T20:40:57.784Z,101693.16
2022-11-25T20:43:34.424Z,101700.19
2022-11-25T20:46:02.473Z,101703.63
2022-11-25T20:48:29.925Z,101572.28
2022-11-25T20:50:59.940Z,101692.38
2022-11-25T20:53:27.987Z,101701.97
2022-11-25T20:55:54.329Z,101641.03
2022-11-25T20:58:25.242Z,101716.75
2022-11-25T21:01:01.126Z,101557.56
2022-11-25T21:03:27.521Z,101615.81
2022-11-25T21:05:55.334Z,101625.38
2022-11-25T21:08:24.245Z,101707.28
2022-11-25T21:10:53.816Z,101741.19
2022-11-25T21:13:26.417Z,101641.97
2022-11-25T21:15:53.937Z,101746.44
2022-11-25T21:18:21.440Z,101722.09
2022-11-25T21:20:53.615Z,101750.81
2022-11-25T21:23:22.691Z,101758.66
2022-11-25T21:25:50.304Z,101614.13
2022-11-25T21:28:20.329Z,101642.84
2022-11-25T21:30:49.497Z,101750.81
2022-11-25T21:33:16.407Z,101769.09
2022-11-25T21:35:46.711Z,101682.03
2022-11-25T21:38:27.241Z,101745.56
2022-11-25T21:40:56.095Z,101597.59
2022-11-25T21:43:40.532Z,101742.97
2022-11-25T21:46:12.506Z,101766.47
2022-11-25T21:48:39.951Z,101707.25
2022-11-25T21:51:06.362Z,101715.06
2022-11-25T21:53:37.157Z,101633.25
2022-11-25T21:56:14.161Z,101773.44
2022-11-25T21:58:40.731Z,101776.94
2022-11-25T22:01:10.669Z,101671.53
2022-11-25T22:03:37.056Z,101578.31
2022-11-25T22:06:03.705Z,101749.03
2022-11-25T22:08:30.385Z,101738.56
2022-11-25T22:10:56.844Z,101740.28
2022-11-25T22:13:30.101Z,101776.84
2022-11-25T22:15:58.232Z,101757.63
2022-11-25T22:18:34.401Z,101779.41
2022-11-25T22:21:01.835Z,101778.50
2022-11-25T22:23:30.768Z,101776.75
2022-11-25T22:25:57.196Z,101739.25
2022-11-25T22:28:30.711Z,101797.69
2022-11-25T22:31:04.823Z,101823.00
2022-11-25T22:33:33.647Z,101762.81
2022-11-25T22:36:00.658Z,101836.03
2022-11-25T22:38:29.174Z,101836.88
2022-11-25T22:40:59.283Z,101729.59
2022-11-25T22:43:29.612Z,101836.88
2022-11-25T22:45:56.788Z,101823.75
2022-11-25T22:48:30.875Z,101611.13
2022-11-25T22:51:00.083Z,101834.19
2022-11-25T22:53:26.435Z,101738.28
2022-11-25T22:55:56.735Z,101730.31
2022-11-25T22:58:24.056Z,101820.16
2022-11-25T23:00:51.482Z,101828.00
2022-11-25T23:03:26.677Z,101869.88
2022-11-25T23:05:54.253Z,101865.50
2022-11-25T23:08:28.979Z,101774.72
2022-11-25T23:10:56.147Z,101861.16
2022-11-25T23:13:26.427Z,101811.47
2022-11-25T23:15:59.963Z,101703.22
2022-11-25T23:18:34.106Z,101845.41
2022-11-25T23:21:05.560Z,101864.53
2022-11-25T23:23:35.244Z,101899.41
2022-11-25T23:26:02.014Z,101744.94
2022-11-25T23:28:28.414Z,101767.66
2022-11-25T23:31:00.702Z,101894.16
2022-11-25T23:33:32.835Z,101891.56
2022-11-25T23:36:02.536Z,101901.97
2022-11-25T23:38:31.306Z,101901.97
2022-11-25T23:40:57.840Z,101798.94
2022-11-25T23:43:26.719Z,101758.03
2022-11-25T23:45:56.014Z,101887.16
2022-11-25T23:48:27.718Z,101648.13
2022-11-25T23:50:58.116Z,101783.22
2022-11-25T23:53:29.206Z,101902.88
2022-11-25T23:55:55.839Z,101689.06
2022-11-25T23:58:25.739Z,101903.72
